Arrowsic, Maine
Current Conditions -  °F | °C
As of 11:53 AM on Friday 31 Oct 2014 (Local Time) from KIWI Reporting Station
Clear Clear  
Wind Chill: 51°   Ceiling: Unl
Heat Index: 51°   Visibility: 10mi
Dew Point: 29°   Wind: 0mph
Humidity: 43%   Direction: NA
Pressure: 30.05"   Gusts: NA
Location:  43.8797°N, 69.8408°W
Report Text: KIWI 311553Z AUTO 00000KT 10SM CLR 11/M02 A3005 RMK AO2 SLP176 T01061017
Loading
Personal Weather Stations






























Interactive Weather Map New forecast layout! Learn more

10-Day Weather Forecast

Advertisements
Track Severe Weather on mobile